sensor_id;sensor_type;location;lat;lon;timestamp;temperature;humidity
52565;DHT22;38460;53.106;7.004;2023-04-03T00:01:16;1.30;99.90
52565;DHT22;38460;53.106;7.004;2023-04-03T00:03:42;1.20;99.90
52565;DHT22;38460;53.106;7.004;2023-04-03T00:06:09;1.20;99.90
52565;DHT22;38460;53.106;7.004;2023-04-03T00:08:37;1.20;99.90
52565;DHT22;38460;53.106;7.004;2023-04-03T00:11:04;1.10;99.90
52565;DHT22;38460;53.106;7.004;2023-04-03T00:13:30;1.20;99.90
52565;DHT22;38460;53.106;7.004;2023-04-03T00:15:56;1.10;99.90
52565;DHT22;38460;53.106;7.004;2023-04-03T00:18:22;1.10;99.90
52565;DHT22;38460;53.106;7.004;2023-04-03T00:20:48;1.10;99.90
52565;DHT22;38460;53.106;7.004;2023-04-03T00:23:14;1.00;99.90
52565;DHT22;38460;53.106;7.004;2023-04-03T00:25:40;1.00;99.90
52565;DHT22;38460;53.106;7.004;2023-04-03T00:28:06;1.00;99.90
52565;DHT22;38460;53.106;7.004;2023-04-03T00:30:32;1.30;99.90
52565;DHT22;38460;53.106;7.004;2023-04-03T00:32:58;1.00;99.90
52565;DHT22;38460;53.106;7.004;2023-04-03T00:35:24;1.00;99.90
52565;DHT22;38460;53.106;7.004;2023-04-03T00:37:52;0.90;99.90
52565;DHT22;38460;53.106;7.004;2023-04-03T00:40:20;0.90;99.90
52565;DHT22;38460;53.106;7.004;2023-04-03T00:42:48;0.90;99.90
52565;DHT22;38460;53.106;7.004;2023-04-03T00:45:39;0.90;99.90
52565;DHT22;38460;53.106;7.004;2023-04-03T00:48:08;0.90;99.90
52565;DHT22;38460;53.106;7.004;2023-04-03T00:50:37;0.80;99.90
52565;DHT22;38460;53.106;7.004;2023-04-03T00:53:05;0.80;99.90
52565;DHT22;38460;53.106;7.004;2023-04-03T00:55:32;0.80;99.90
52565;DHT22;38460;53.106;7.004;2023-04-03T00:57:58;0.70;99.90
52565;DHT22;38460;53.106;7.004;2023-04-03T01:00:26;0.70;99.90
52565;DHT22;38460;53.106;7.004;2023-04-03T01:02:52;0.70;99.90
52565;DHT22;38460;53.106;7.004;2023-04-03T01:05:19;0.60;99.90
52565;DHT22;38460;53.106;7.004;2023-04-03T01:07:46;0.60;99.90
52565;DHT22;38460;53.106;7.004;2023-04-03T01:10:14;0.60;99.90
52565;DHT22;38460;53.106;7.004;2023-04-03T01:12:42;0.50;99.90
52565;DHT22;38460;53.106;7.004;2023-04-03T01:15:18;0.50;99.90
52565;DHT22;38460;53.106;7.004;2023-04-03T01:17:50;0.50;99.90
52565;DHT22;38460;53.106;7.004;2023-04-03T01:25:29;0.50;99.90
52565;DHT22;38460;53.106;7.004;2023-04-03T01:27:55;0.40;99.90
52565;DHT22;38460;53.106;7.004;2023-04-03T01:30:25;0.30;99.90
52565;DHT22;38460;53.106;7.004;2023-04-03T01:32:53;0.30;99.90
52565;DHT22;38460;53.106;7.004;2023-04-03T01:35:18;0.30;99.90
52565;DHT22;38460;53.106;7.004;2023-04-03T01:37:44;0.30;99.90
52565;DHT22;38460;53.106;7.004;2023-04-03T01:40:10;0.30;99.90
52565;DHT22;38460;53.106;7.004;2023-04-03T01:42:36;0.30;99.90
52565;DHT22;38460;53.106;7.004;2023-04-03T01:45:02;0.30;99.90
52565;DHT22;38460;53.106;7.004;2023-04-03T01:47:28;0.20;99.90
52565;DHT22;38460;53.106;7.004;2023-04-03T01:49:54;0.30;99.90
52565;DHT22;38460;53.106;7.004;2023-04-03T01:52:19;0.20;99.90
52565;DHT22;38460;53.106;7.004;2023-04-03T01:54:45;0.20;99.90
52565;DHT22;38460;53.106;7.004;2023-04-03T01:57:11;0.30;99.90
52565;DHT22;38460;53.106;7.004;2023-04-03T01:59:39;0.20;99.90
52565;DHT22;38460;53.106;7.004;2023-04-03T02:02:04;0.30;99.90
52565;DHT22;38460;53.106;7.004;2023-04-03T02:04:30;0.30;99.90
52565;DHT22;38460;53.106;7.004;2023-04-03T02:06:56;0.20;99.90
52565;DHT22;38460;53.106;7.004;2023-04-03T02:09:22;0.20;99.90
52565;DHT22;38460;53.106;7.004;2023-04-03T02:11:47;0.20;99.90
52565;DHT22;38460;53.106;7.004;2023-04-03T02:14:13;0.10;99.90
52565;DHT22;38460;53.106;7.004;2023-04-03T02:16:39;0.10;99.90
52565;DHT22;38460;53.106;7.004;2023-04-03T02:19:05;0.10;99.90
52565;DHT22;38460;53.106;7.004;2023-04-03T02:21:31;0.10;99.90
52565;DHT22;38460;53.106;7.004;2023-04-03T02:23:56;0.10;99.90
52565;DHT22;38460;53.106;7.004;2023-04-03T02:26:22;0.00;99.90
52565;DHT22;38460;53.106;7.004;2023-04-03T02:28:48;0.00;99.90
52565;DHT22;38460;53.106;7.004;2023-04-03T02:31:14;0.10;99.90
52565;DHT22;38460;53.106;7.004;2023-04-03T02:33:40;-0.10;99.90
52565;DHT22;38460;53.106;7.004;2023-04-03T02:36:07;-0.10;99.90
52565;DHT22;38460;53.106;7.004;2023-04-03T02:38:33;-0.20;99.90
52565;DHT22;38460;53.106;7.004;2023-04-03T02:41:05;0.10;99.90
52565;DHT22;38460;53.106;7.004;2023-04-03T02:43:31;-0.20;99.90
52565;DHT22;38460;53.106;7.004;2023-04-03T02:45:57;-0.30;99.90
52565;DHT22;38460;53.106;7.004;2023-04-03T02:48:23;-0.30;99.90
52565;DHT22;38460;53.106;7.004;2023-04-03T02:50:50;-0.30;99.90
52565;DHT22;38460;53.106;7.004;2023-04-03T02:53:16;-0.40;99.90
52565;DHT22;38460;53.106;7.004;2023-04-03T02:55:42;-0.40;99.90
52565;DHT22;38460;53.106;7.004;2023-04-03T02:58:07;-0.40;99.90
52565;DHT22;38460;53.106;7.004;2023-04-03T03:00:33;-0.50;99.90
52565;DHT22;38460;53.106;7.004;2023-04-03T03:02:59;-0.50;99.90
52565;DHT22;38460;53.106;7.004;2023-04-03T03:05:26;-0.60;99.90
52565;DHT22;38460;53.106;7.004;2023-04-03T03:07:51;0.00;99.90
52565;DHT22;38460;53.106;7.004;2023-04-03T03:10:17;-0.60;99.90
52565;DHT22;38460;53.106;7.004;2023-04-03T03:12:43;-0.60;99.90
52565;DHT22;38460;53.106;7.004;2023-04-03T03:15:09;-0.20;99.90
52565;DHT22;38460;53.106;7.004;2023-04-03T03:17:35;-0.60;99.90
52565;DHT22;38460;53.106;7.004;2023-04-03T03:20:03;-0.60;99.90
52565;DHT22;38460;53.106;7.004;2023-04-03T03:22:29;-0.20;99.90
52565;DHT22;38460;53.106;7.004;2023-04-03T03:24:55;-0.20;99.90
52565;DHT22;38460;53.106;7.004;2023-04-03T03:27:21;-0.50;99.90
52565;DHT22;38460;53.106;7.004;2023-04-03T03:29:47;-0.60;99.90
52565;DHT22;38460;53.106;7.004;2023-04-03T03:32:13;-0.50;99.90
52565;DHT22;38460;53.106;7.004;2023-04-03T03:34:38;-0.50;99.90
52565;DHT22;38460;53.106;7.004;2023-04-03T03:37:04;-0.50;99.90
52565;DHT22;38460;53.106;7.004;2023-04-03T03:39:30;-0.20;99.90
52565;DHT22;38460;53.106;7.004;2023-04-03T03:41:56;-0.60;99.90
52565;DHT22;38460;53.106;7.004;2023-04-03T03:44:22;-0.30;99.90
52565;DHT22;38460;53.106;7.004;2023-04-03T03:46:48;-0.60;99.90
52565;DHT22;38460;53.106;7.004;2023-04-03T03:49:13;-0.60;99.90
52565;DHT22;38460;53.106;7.004;2023-04-03T03:51:42;-0.60;99.90
52565;DHT22;38460;53.106;7.004;2023-04-03T03:54:09;-0.60;99.90
52565;DHT22;38460;53.106;7.004;2023-04-03T03:56:35;-0.60;99.90
52565;DHT22;38460;53.106;7.004;2023-04-03T03:59:00;-0.60;99.90
52565;DHT22;38460;53.106;7.004;2023-04-03T04:01:26;-0.70;99.90
52565;DHT22;38460;53.106;7.004;2023-04-03T04:03:52;-0.70;99.90
52565;DHT22;38460;53.106;7.004;2023-04-03T04:06:19;-0.30;99.90
52565;DHT22;38460;53.106;7.004;2023-04-03T04:08:46;-0.70;99.90
52565;DHT22;38460;53.106;7.004;2023-04-03T04:11:14;-0.70;99.90
52565;DHT22;38460;53.106;7.004;2023-04-03T04:13:40;-0.70;99.90
52565;DHT22;38460;53.106;7.004;2023-04-03T04:16:06;-0.70;99.90
52565;DHT22;38460;53.106;7.004;2023-04-03T04:18:32;-0.80;99.90
52565;DHT22;38460;53.106;7.004;2023-04-03T04:20:58;-0.80;99.90
52565;DHT22;38460;53.106;7.004;2023-04-03T04:23:24;-0.80;99.90
52565;DHT22;38460;53.106;7.004;2023-04-03T04:25:50;-0.80;99.90
52565;DHT22;38460;53.106;7.004;2023-04-03T04:28:16;-0.80;99.90
52565;DHT22;38460;53.106;7.004;2023-04-03T04:30:42;-0.80;99.90
52565;DHT22;38460;53.106;7.004;2023-04-03T04:33:08;-0.80;99.90
52565;DHT22;38460;53.106;7.004;2023-04-03T04:35:34;-0.90;99.90
52565;DHT22;38460;53.106;7.004;2023-04-03T04:37:59;-0.50;99.90
52565;DHT22;38460;53.106;7.004;2023-04-03T04:40:26;-0.90;99.90
52565;DHT22;38460;53.106;7.004;2023-04-03T04:42:52;-0.90;99.90
52565;DHT22;38460;53.106;7.004;2023-04-03T04:45:18;-0.90;99.90
52565;DHT22;38460;53.106;7.004;2023-04-03T04:47:44;-0.90;99.90
52565;DHT22;38460;53.106;7.004;2023-04-03T04:50:10;-1.00;99.90
52565;DHT22;38460;53.106;7.004;2023-04-03T04:52:36;-1.00;99.90
52565;DHT22;38460;53.106;7.004;2023-04-03T04:55:03;-0.80;99.90
52565;DHT22;38460;53.106;7.004;2023-04-03T04:57:29;-1.00;99.90
52565;DHT22;38460;53.106;7.004;2023-04-03T04:59:54;-0.30;99.90
52565;DHT22;38460;53.106;7.004;2023-04-03T05:02:20;-1.00;99.90
52565;DHT22;38460;53.106;7.004;2023-04-03T05:04:46;-0.90;99.90
52565;DHT22;38460;53.106;7.004;2023-04-03T05:07:12;-1.00;99.90
52565;DHT22;38460;53.106;7.004;2023-04-03T05:09:38;-0.90;99.90
52565;DHT22;38460;53.106;7.004;2023-04-03T05:12:04;-1.00;99.90
52565;DHT22;38460;53.106;7.004;2023-04-03T05:14:30;-1.00;99.90
52565;DHT22;38460;53.106;7.004;2023-04-03T05:16:56;-1.00;99.90
52565;DHT22;38460;53.106;7.004;2023-04-03T05:19:23;-1.00;99.90
52565;DHT22;38460;53.106;7.004;2023-04-03T05:21:48;-0.80;99.90
52565;DHT22;38460;53.106;7.004;2023-04-03T05:24:15;-1.00;99.90
52565;DHT22;38460;53.106;7.004;2023-04-03T05:26:42;-0.90;99.90
52565;DHT22;38460;53.106;7.004;2023-04-03T05:29:08;-0.80;99.90
52565;DHT22;38460;53.106;7.004;2023-04-03T05:31:34;-0.60;99.90
52565;DHT22;38460;53.106;7.004;2023-04-03T05:34:00;-0.80;99.90
52565;DHT22;38460;53.106;7.004;2023-04-03T05:36:26;-0.80;99.90
52565;DHT22;38460;53.106;7.004;2023-04-03T05:38:52;-0.80;99.90
52565;DHT22;38460;53.106;7.004;2023-04-03T05:41:18;-0.70;99.90
52565;DHT22;38460;53.106;7.004;2023-04-03T05:43:46;-0.70;99.90
52565;DHT22;38460;53.106;7.004;2023-04-03T05:46:17;-0.70;99.90
52565;DHT22;38460;53.106;7.004;2023-04-03T05:48:43;-0.40;99.90
52565;DHT22;38460;53.106;7.004;2023-04-03T05:51:16;-0.60;99.90
52565;DHT22;38460;53.106;7.004;2023-04-03T05:53:43;-0.60;99.90
52565;DHT22;38460;53.106;7.004;2023-04-03T05:56:10;-0.50;99.90
52565;DHT22;38460;53.106;7.004;2023-04-03T05:58:36;-0.50;99.90
52565;DHT22;38460;53.106;7.004;2023-04-03T06:01:02;-0.40;99.90
52565;DHT22;38460;53.106;7.004;2023-04-03T06:03:28;-0.40;99.90
52565;DHT22;38460;53.106;7.004;2023-04-03T06:05:53;0.00;99.90
52565;DHT22;38460;53.106;7.004;2023-04-03T06:08:20;-0.30;99.90
52565;DHT22;38460;53.106;7.004;2023-04-03T06:10:46;-0.30;99.90
52565;DHT22;38460;53.106;7.004;2023-04-03T06:13:11;0.20;99.90
52565;DHT22;38460;53.106;7.004;2023-04-03T06:15:38;-0.20;99.90
52565;DHT22;38460;53.106;7.004;2023-04-03T06:18:05;-0.10;99.90
52565;DHT22;38460;53.106;7.004;2023-04-03T06:20:32;-0.10;99.90
52565;DHT22;38460;53.106;7.004;2023-04-03T06:22:57;0.00;99.90
52565;DHT22;38460;53.106;7.004;2023-04-03T06:25:23;0.00;99.90
52565;DHT22;38460;53.106;7.004;2023-04-03T06:27:49;0.00;99.90
52565;DHT22;38460;53.106;7.004;2023-04-03T06:30:15;0.10;99.90
52565;DHT22;38460;53.106;7.004;2023-04-03T06:32:41;0.10;99.90
52565;DHT22;38460;53.106;7.004;2023-04-03T06:35:08;0.20;99.90
52565;DHT22;38460;53.106;7.004;2023-04-03T06:37:35;0.20;99.90
52565;DHT22;38460;53.106;7.004;2023-04-03T06:40:00;0.30;99.90
52565;DHT22;38460;53.106;7.004;2023-04-03T06:42:26;0.30;99.90
52565;DHT22;38460;53.106;7.004;2023-04-03T06:44:52;0.50;99.90
52565;DHT22;38460;53.106;7.004;2023-04-03T06:47:18;0.40;99.90
52565;DHT22;38460;53.106;7.004;2023-04-03T06:49:44;0.50;99.90
52565;DHT22;38460;53.106;7.004;2023-04-03T06:52:10;0.50;99.90
52565;DHT22;38460;53.106;7.004;2023-04-03T06:54:40;0.60;99.90
52565;DHT22;38460;53.106;7.004;2023-04-03T06:57:06;0.70;99.90
52565;DHT22;38460;53.106;7.004;2023-04-03T06:59:32;0.70;99.90
52565;DHT22;38460;53.106;7.004;2023-04-03T07:01:57;0.80;99.90
52565;DHT22;38460;53.106;7.004;2023-04-03T07:04:25;0.80;99.90
52565;DHT22;38460;53.106;7.004;2023-04-03T07:06:51;1.00;99.90
52565;DHT22;38460;53.106;7.004;2023-04-03T07:09:18;1.00;99.90
52565;DHT22;38460;53.106;7.004;2023-04-03T07:11:44;1.10;99.90
52565;DHT22;38460;53.106;7.004;2023-04-03T07:14:12;1.20;99.90
52565;DHT22;38460;53.106;7.004;2023-04-03T07:16:38;1.30;99.90
52565;DHT22;38460;53.106;7.004;2023-04-03T07:19:04;1.40;99.90
52565;DHT22;38460;53.106;7.004;2023-04-03T07:21:30;1.50;99.90
52565;DHT22;38460;53.106;7.004;2023-04-03T07:23:56;1.60;99.90
52565;DHT22;38460;53.106;7.004;2023-04-03T07:26:22;1.70;99.90
52565;DHT22;38460;53.106;7.004;2023-04-03T07:28:48;1.80;99.90
52565;DHT22;38460;53.106;7.004;2023-04-03T07:31:16;1.90;99.90
52565;DHT22;38460;53.106;7.004;2023-04-03T07:33:44;2.00;99.90
52565;DHT22;38460;53.106;7.004;2023-04-03T07:36:14;2.10;99.90
52565;DHT22;38460;53.106;7.004;2023-04-03T07:38:40;2.10;99.90
52565;DHT22;38460;53.106;7.004;2023-04-03T07:41:06;2.20;99.90
52565;DHT22;38460;53.106;7.004;2023-04-03T07:43:32;2.20;99.90
52565;DHT22;38460;53.106;7.004;2023-04-03T07:45:58;2.30;99.90
52565;DHT22;38460;53.106;7.004;2023-04-03T07:48:25;2.40;99.90
52565;DHT22;38460;53.106;7.004;2023-04-03T07:50:52;2.50;99.90
52565;DHT22;38460;53.106;7.004;2023-04-03T07:53:18;2.50;99.90
52565;DHT22;38460;53.106;7.004;2023-04-03T07:55:47;2.60;99.90
52565;DHT22;38460;53.106;7.004;2023-04-03T07:58:17;2.60;99.90
52565;DHT22;38460;53.106;7.004;2023-04-03T08:00:44;2.60;99.90
52565;DHT22;38460;53.106;7.004;2023-04-03T08:03:11;2.70;99.90
52565;DHT22;38460;53.106;7.004;2023-04-03T08:05:41;2.80;99.90
52565;DHT22;38460;53.106;7.004;2023-04-03T08:08:08;2.80;99.90
52565;DHT22;38460;53.106;7.004;2023-04-03T08:10:34;2.90;99.90
52565;DHT22;38460;53.106;7.004;2023-04-03T08:13:02;2.90;99.90
52565;DHT22;38460;53.106;7.004;2023-04-03T08:15:28;3.00;99.90
52565;DHT22;38460;53.106;7.004;2023-04-03T08:17:55;3.10;99.90
52565;DHT22;38460;53.106;7.004;2023-04-03T08:20:21;3.20;99.90
52565;DHT22;38460;53.106;7.004;2023-04-03T08:22:47;3.20;99.90
52565;DHT22;38460;53.106;7.004;2023-04-03T08:25:13;3.30;99.90
52565;DHT22;38460;53.106;7.004;2023-04-03T08:27:38;3.40;99.90
52565;DHT22;38460;53.106;7.004;2023-04-03T08:30:05;3.40;99.90
52565;DHT22;38460;53.106;7.004;2023-04-03T08:32:33;3.50;99.90
52565;DHT22;38460;53.106;7.004;2023-04-03T08:34:59;3.50;99.90
52565;DHT22;38460;53.106;7.004;2023-04-03T08:37:25;3.60;99.90
52565;DHT22;38460;53.106;7.004;2023-04-03T08:39:51;3.70;99.90
52565;DHT22;38460;53.106;7.004;2023-04-03T08:43:03;3.80;99.90
52565;DHT22;38460;53.106;7.004;2023-04-03T08:48:07;4.00;99.90
52565;DHT22;38460;53.106;7.004;2023-04-03T08:50:42;4.00;99.90
52565;DHT22;38460;53.106;7.004;2023-04-03T08:53:23;4.10;99.90
52565;DHT22;38460;53.106;7.004;2023-04-03T08:55:51;4.20;99.90
52565;DHT22;38460;53.106;7.004;2023-04-03T08:58:29;4.40;99.90
52565;DHT22;38460;53.106;7.004;2023-04-03T09:01:01;4.50;99.90
52565;DHT22;38460;53.106;7.004;2023-04-03T09:03:38;4.60;99.90
52565;DHT22;38460;53.106;7.004;2023-04-03T09:06:11;4.70;99.90
52565;DHT22;38460;53.106;7.004;2023-04-03T09:14:36;5.10;99.90
52565;DHT22;38460;53.106;7.004;2023-04-03T09:22:41;5.40;99.90
52565;DHT22;38460;53.106;7.004;2023-04-03T09:25:18;5.40;99.90
52565;DHT22;38460;53.106;7.004;2023-04-03T09:27:45;5.60;99.90
52565;DHT22;38460;53.106;7.004;2023-04-03T09:30:16;5.70;99.90
52565;DHT22;38460;53.106;7.004;2023-04-03T09:32:45;5.80;99.90
52565;DHT22;38460;53.106;7.004;2023-04-03T09:35:25;5.90;99.90
52565;DHT22;38460;53.106;7.004;2023-04-03T09:37:54;6.10;99.90
52565;DHT22;38460;53.106;7.004;2023-04-03T09:40:30;6.20;99.90
52565;DHT22;38460;53.106;7.004;2023-04-03T09:43:00;6.30;99.90
52565;DHT22;38460;53.106;7.004;2023-04-03T09:45:34;6.30;99.90
52565;DHT22;38460;53.106;7.004;2023-04-03T09:55:51;6.70;99.90
52565;DHT22;38460;53.106;7.004;2023-04-03T10:01:01;6.80;99.90
52565;DHT22;38460;53.106;7.004;2023-04-03T10:03:32;6.90;99.90
52565;DHT22;38460;53.106;7.004;2023-04-03T10:05:58;7.00;99.90
52565;DHT22;38460;53.106;7.004;2023-04-03T10:11:18;7.10;99.90
52565;DHT22;38460;53.106;7.004;2023-04-03T10:19:24;7.40;99.80
52565;DHT22;38460;53.106;7.004;2023-04-03T10:21:59;7.50;99.90
52565;DHT22;38460;53.106;7.004;2023-04-03T10:24:28;7.70;99.90
52565;DHT22;38460;53.106;7.004;2023-04-03T10:27:10;7.90;99.70
52565;DHT22;38460;53.106;7.004;2023-04-03T10:30:09;8.00;99.90
52565;DHT22;38460;53.106;7.004;2023-04-03T10:39:15;8.20;97.60
52565;DHT22;38460;53.106;7.004;2023-04-03T10:42:09;8.30;98.30
52565;DHT22;38460;53.106;7.004;2023-04-03T10:50:55;8.70;94.90
52565;DHT22;38460;53.106;7.004;2023-04-03T10:53:52;8.70;96.40
52565;DHT22;38460;53.106;7.004;2023-04-03T10:59:19;9.00;95.50
52565;DHT22;38460;53.106;7.004;2023-04-03T11:04:43;9.10;93.40
52565;DHT22;38460;53.106;7.004;2023-04-03T11:07:17;9.20;94.90
52565;DHT22;38460;53.106;7.004;2023-04-03T11:09:46;9.20;94.80
52565;DHT22;38460;53.106;7.004;2023-04-03T11:12:21;9.30;94.50
52565;DHT22;38460;53.106;7.004;2023-04-03T11:14:50;9.40;94.10
52565;DHT22;38460;53.106;7.004;2023-04-03T11:22:39;9.70;92.10
52565;DHT22;38460;53.106;7.004;2023-04-03T11:27:46;9.70;91.10
52565;DHT22;38460;53.106;7.004;2023-04-03T11:35:27;9.90;90.60
52565;DHT22;38460;53.106;7.004;2023-04-03T11:37:54;10.00;90.20
52565;DHT22;38460;53.106;7.004;2023-04-03T11:40:28;10.00;91.00
52565;DHT22;38460;53.106;7.004;2023-04-03T11:43:05;10.20;90.50
52565;DHT22;38460;53.106;7.004;2023-04-03T11:45:58;10.30;90.30
52565;DHT22;38460;53.106;7.004;2023-04-03T11:50:54;10.10;85.50
52565;DHT22;38460;53.106;7.004;2023-04-03T11:53:32;10.30;87.50
52565;DHT22;38460;53.106;7.004;2023-04-03T11:56:02;10.40;86.30
52565;DHT22;38460;53.106;7.004;2023-04-03T11:58:35;10.30;84.70
52565;DHT22;38460;53.106;7.004;2023-04-03T12:01:11;10.30;85.20
52565;DHT22;38460;53.106;7.004;2023-04-03T12:04:06;10.30;85.10
52565;DHT22;38460;53.106;7.004;2023-04-03T12:08:58;10.40;81.60
52565;DHT22;38460;53.106;7.004;2023-04-03T12:11:29;10.10;77.40
52565;DHT22;38460;53.106;7.004;2023-04-03T12:21:24;9.90;77.80
52565;DHT22;38460;53.106;7.004;2023-04-03T12:29:53;10.40;80.40
52565;DHT22;38460;53.106;7.004;2023-04-03T12:40:43;10.60;74.80
52565;DHT22;38460;53.106;7.004;2023-04-03T12:43:20;10.60;78.80
52565;DHT22;38460;53.106;7.004;2023-04-03T12:48:22;10.60;71.50
52565;DHT22;38460;53.106;7.004;2023-04-03T12:50:50;10.50;73.50
52565;DHT22;38460;53.106;7.004;2023-04-03T12:53:20;9.90;67.90
52565;DHT22;38460;53.106;7.004;2023-04-03T12:55:46;9.80;71.40
52565;DHT22;38460;53.106;7.004;2023-04-03T12:58:24;9.90;74.10
52565;DHT22;38460;53.106;7.004;2023-04-03T13:01:01;10.10;75.20
52565;DHT22;38460;53.106;7.004;2023-04-03T13:03:28;10.30;75.50
52565;DHT22;38460;53.106;7.004;2023-04-03T13:06:00;10.50;76.30
52565;DHT22;38460;53.106;7.004;2023-04-03T13:08:27;10.60;74.30
52565;DHT22;38460;53.106;7.004;2023-04-03T13:13:26;10.40;72.50
52565;DHT22;38460;53.106;7.004;2023-04-03T13:15:53;10.70;75.30
52565;DHT22;38460;53.106;7.004;2023-04-03T13:18:32;10.80;75.70
52565;DHT22;38460;53.106;7.004;2023-04-03T13:21:13;10.80;68.20
52565;DHT22;38460;53.106;7.004;2023-04-03T13:23:43;10.70;68.10
52565;DHT22;38460;53.106;7.004;2023-04-03T13:26:10;10.90;73.20
52565;DHT22;38460;53.106;7.004;2023-04-03T13:28:38;10.80;70.80
52565;DHT22;38460;53.106;7.004;2023-04-03T13:36:37;11.00;72.70
52565;DHT22;38460;53.106;7.004;2023-04-03T13:41:46;10.40;65.40
52565;DHT22;38460;53.106;7.004;2023-04-03T13:46:49;10.30;68.70
52565;DHT22;38460;53.106;7.004;2023-04-03T13:49:20;10.30;70.70
52565;DHT22;38460;53.106;7.004;2023-04-03T13:51:47;10.20;69.00
52565;DHT22;38460;53.106;7.004;2023-04-03T13:54:21;10.40;72.40
52565;DHT22;38460;53.106;7.004;2023-04-03T13:56:56;10.60;72.70
52565;DHT22;38460;53.106;7.004;2023-04-03T13:59:29;10.60;72.10
52565;DHT22;38460;53.106;7.004;2023-04-03T14:04:30;10.80;73.20
52565;DHT22;38460;53.106;7.004;2023-04-03T14:06:57;10.50;70.40
52565;DHT22;38460;53.106;7.004;2023-04-03T14:09:26;10.10;69.60
52565;DHT22;38460;53.106;7.004;2023-04-03T14:11:54;10.10;72.80
52565;DHT22;38460;53.106;7.004;2023-04-03T14:14:24;10.00;72.70
52565;DHT22;38460;53.106;7.004;2023-04-03T14:16:54;10.40;74.40
52565;DHT22;38460;53.106;7.004;2023-04-03T14:19:24;10.50;72.60
52565;DHT22;38460;53.106;7.004;2023-04-03T14:21:51;10.30;67.70
52565;DHT22;38460;53.106;7.004;2023-04-03T14:24:18;10.20;68.50
52565;DHT22;38460;53.106;7.004;2023-04-03T14:26:45;10.00;66.60
52565;DHT22;38460;53.106;7.004;2023-04-03T14:29:12;10.00;68.40
52565;DHT22;38460;53.106;7.004;2023-04-03T14:31:40;10.10;69.40
52565;DHT22;38460;53.106;7.004;2023-04-03T14:34:06;9.90;66.20
52565;DHT22;38460;53.106;7.004;2023-04-03T14:36:33;9.60;67.30
52565;DHT22;38460;53.106;7.004;2023-04-03T14:38:59;9.60;67.70
52565;DHT22;38460;53.106;7.004;2023-04-03T14:41:26;9.70;69.60
52565;DHT22;38460;53.106;7.004;2023-04-03T14:43:53;9.70;68.30
52565;DHT22;38460;53.106;7.004;2023-04-03T14:46:33;9.60;66.70
52565;DHT22;38460;53.106;7.004;2023-04-03T14:49:00;9.50;67.20
52565;DHT22;38460;53.106;7.004;2023-04-03T14:51:26;9.50;68.80
52565;DHT22;38460;53.106;7.004;2023-04-03T14:53:52;9.60;68.00
52565;DHT22;38460;53.106;7.004;2023-04-03T14:56:23;9.50;68.90
52565;DHT22;38460;53.106;7.004;2023-04-03T14:58:55;9.70;71.60
52565;DHT22;38460;53.106;7.004;2023-04-03T15:01:22;9.60;69.80
52565;DHT22;38460;53.106;7.004;2023-04-03T15:03:48;9.80;71.10
52565;DHT22;38460;53.106;7.004;2023-04-03T15:06:14;9.70;69.40
52565;DHT22;38460;53.106;7.004;2023-04-03T15:08:41;9.70;69.80
52565;DHT22;38460;53.106;7.004;2023-04-03T15:11:11;9.40;69.60
52565;DHT22;38460;53.106;7.004;2023-04-03T15:13:38;9.30;71.30
52565;DHT22;38460;53.106;7.004;2023-04-03T15:16:05;9.30;71.40
52565;DHT22;38460;53.106;7.004;2023-04-03T15:18:37;9.50;72.70
52565;DHT22;38460;53.106;7.004;2023-04-03T15:21:03;9.50;71.50
52565;DHT22;38460;53.106;7.004;2023-04-03T15:23:29;9.50;70.40
52565;DHT22;38460;53.106;7.004;2023-04-03T15:25:55;9.50;70.10
52565;DHT22;38460;53.106;7.004;2023-04-03T15:28:34;9.30;71.50
52565;DHT22;38460;53.106;7.004;2023-04-03T15:31:01;9.30;71.30
52565;DHT22;38460;53.106;7.004;2023-04-03T15:33:27;9.20;70.10
52565;DHT22;38460;53.106;7.004;2023-04-03T15:35:53;9.10;70.20
52565;DHT22;38460;53.106;7.004;2023-04-03T15:38:19;9.10;70.60
52565;DHT22;38460;53.106;7.004;2023-04-03T15:40:45;9.20;72.10
52565;DHT22;38460;53.106;7.004;2023-04-03T15:43:13;9.00;68.50
52565;DHT22;38460;53.106;7.004;2023-04-03T15:45:39;8.90;70.20
52565;DHT22;38460;53.106;7.004;2023-04-03T15:48:06;8.90;68.60
52565;DHT22;38460;53.106;7.004;2023-04-03T15:50:33;8.90;71.00
52565;DHT22;38460;53.106;7.004;2023-04-03T15:52:59;8.70;70.60
52565;DHT22;38460;53.106;7.004;2023-04-03T15:55:31;8.60;70.70
52565;DHT22;38460;53.106;7.004;2023-04-03T15:57:57;8.60;70.10
52565;DHT22;38460;53.106;7.004;2023-04-03T16:00:24;8.60;71.50
52565;DHT22;38460;53.106;7.004;2023-04-03T16:02:55;8.50;71.40
52565;DHT22;38460;53.106;7.004;2023-04-03T16:05:22;8.30;71.70
52565;DHT22;38460;53.106;7.004;2023-04-03T16:07:48;8.30;71.50
52565;DHT22;38460;53.106;7.004;2023-04-03T16:10:17;8.20;70.60
52565;DHT22;38460;53.106;7.004;2023-04-03T16:12:44;8.20;71.70
52565;DHT22;38460;53.106;7.004;2023-04-03T16:15:10;8.20;70.90
52565;DHT22;38460;53.106;7.004;2023-04-03T16:17:37;8.20;73.10
52565;DHT22;38460;53.106;7.004;2023-04-03T16:20:05;8.20;72.70
52565;DHT22;38460;53.106;7.004;2023-04-03T16:22:32;8.10;71.80
52565;DHT22;38460;53.106;7.004;2023-04-03T16:24:58;7.90;72.50
52565;DHT22;38460;53.106;7.004;2023-04-03T16:27:24;7.90;72.70
52565;DHT22;38460;53.106;7.004;2023-04-03T16:29:55;7.80;73.50
52565;DHT22;38460;53.106;7.004;2023-04-03T16:32:21;7.90;74.90
52565;DHT22;38460;53.106;7.004;2023-04-03T16:34:48;7.80;73.40
52565;DHT22;38460;53.106;7.004;2023-04-03T16:37:14;7.80;75.40
52565;DHT22;38460;53.106;7.004;2023-04-03T16:39:40;7.80;75.90
52565;DHT22;38460;53.106;7.004;2023-04-03T16:42:06;7.80;75.50
52565;DHT22;38460;53.106;7.004;2023-04-03T16:44:33;7.80;75.40
52565;DHT22;38460;53.106;7.004;2023-04-03T16:46:59;7.80;76.40
52565;DHT22;38460;53.106;7.004;2023-04-03T16:49:25;7.70;75.80
52565;DHT22;38460;53.106;7.004;2023-04-03T16:51:52;7.70;75.40
52565;DHT22;38460;53.106;7.004;2023-04-03T16:54:18;7.60;75.00
52565;DHT22;38460;53.106;7.004;2023-04-03T16:56:44;7.50;74.80
52565;DHT22;38460;53.106;7.004;2023-04-03T16:59:09;7.50;76.60
52565;DHT22;38460;53.106;7.004;2023-04-03T17:01:35;7.40;75.50
52565;DHT22;38460;53.106;7.004;2023-04-03T17:04:01;7.40;77.40
52565;DHT22;38460;53.106;7.004;2023-04-03T17:06:26;7.30;78.30
52565;DHT22;38460;53.106;7.004;2023-04-03T17:08:52;7.20;77.10
52565;DHT22;38460;53.106;7.004;2023-04-03T17:11:18;7.10;75.10
52565;DHT22;38460;53.106;7.004;2023-04-03T17:13:44;7.10;76.30
52565;DHT22;38460;53.106;7.004;2023-04-03T17:16:13;7.10;77.80
52565;DHT22;38460;53.106;7.004;2023-04-03T17:18:40;7.00;76.10
52565;DHT22;38460;53.106;7.004;2023-04-03T17:21:06;6.90;77.20
52565;DHT22;38460;53.106;7.004;2023-04-03T17:23:33;6.90;78.40
52565;DHT22;38460;53.106;7.004;2023-04-03T17:26:03;6.80;79.30
52565;DHT22;38460;53.106;7.004;2023-04-03T17:28:29;6.70;79.10
52565;DHT22;38460;53.106;7.004;2023-04-03T17:30:59;6.60;79.30
52565;DHT22;38460;53.106;7.004;2023-04-03T17:33:26;6.60;78.00
52565;DHT22;38460;53.106;7.004;2023-04-03T17:35:59;6.50;78.80
52565;DHT22;38460;53.106;7.004;2023-04-03T17:38:27;6.50;80.30
52565;DHT22;38460;53.106;7.004;2023-04-03T17:40:57;6.40;79.50